Time;durP1;ratioP1;P1;durP2;ratioP2;P2;SDS_P1;SDS_P2;PMS_P1;PMS_P2;Temp;Humidity;BMP_temperature;BMP_pressure;BME280_temperature;BME280_humidity;BME280_pressure;Samples;Min_cycle;Max_cycle;Signal;HPM_P1;HPM_P2
2021/05/03 00:09:12;;;;;;;30.00;21.40;;;;;;;14.96;100.00;98572.52;1785891;79;22834;-47
2021/05/03 00:11:42;;;;;;;28.23;21.02;;;;;;;14.91;100.00;98577.48;1752217;80;21580;-48
2021/05/03 00:14:11;;;;;;;27.87;21.15;;;;;;;14.90;100.00;98568.98;1750658;80;21049;-48
2021/05/03 00:16:39;;;;;;;24.92;19.67;;;;;;;14.89;100.00;98568.63;1754595;80;21013;-48
2021/05/03 00:19:07;;;;;;;23.60;18.80;;;;;;;14.91;100.00;98567.98;1749617;80;21017;-48
2021/05/03 00:21:35;;;;;;;29.55;20.65;;;;;;;14.93;100.00;98579.09;1750648;80;20934;-49
2021/05/03 00:24:04;;;;;;;26.33;20.12;;;;;;;14.96;100.00;98577.95;1752195;80;21037;-47
2021/05/03 00:26:33;;;;;;;31.37;21.05;;;;;;;14.98;100.00;98584.63;1751009;80;21017;-48
2021/05/03 00:29:01;;;;;;;24.92;19.62;;;;;;;14.97;100.00;98587.84;1759177;80;21002;-48
2021/05/03 00:31:29;;;;;;;25.10;19.62;;;;;;;14.97;100.00;98586.48;1751254;80;20996;-48
2021/05/03 00:33:57;;;;;;;27.20;19.80;;;;;;;14.96;100.00;98586.09;1751618;80;20994;-48
2021/05/03 00:36:25;;;;;;;27.93;19.45;;;;;;;14.95;100.00;98587.09;1756518;80;21542;-49
2021/05/03 00:38:53;;;;;;;27.98;18.85;;;;;;;14.94;100.00;98578.59;1750931;80;21426;-49
2021/05/03 00:41:21;;;;;;;22.65;18.27;;;;;;;14.92;100.00;98586.02;1752571;80;21156;-48
2021/05/03 00:43:50;;;;;;;27.75;19.27;;;;;;;14.93;100.00;98582.31;1751415;79;21519;-48
2021/05/03 00:46:20;;;;;;;23.95;17.42;;;;;;;14.93;100.00;98586.38;1753075;80;20977;-47
2021/05/03 00:48:48;;;;;;;24.80;18.05;;;;;;;14.92;100.00;98590.95;1751491;80;20986;-48
2021/05/03 00:51:16;;;;;;;23.70;15.53;;;;;;;14.92;100.00;98590.09;1751133;80;21249;-47
2021/05/03 00:53:44;;;;;;;21.68;15.85;;;;;;;14.93;100.00;98594.53;1752661;80;20998;-48
2021/05/03 00:56:12;;;;;;;22.98;14.65;;;;;;;14.94;100.00;98592.17;1751995;80;20994;-49
2021/05/03 00:58:41;;;;;;;23.77;15.40;;;;;;;14.94;100.00;98588.09;1754861;80;21641;-48
2021/05/03 01:01:09;;;;;;;23.70;16.42;;;;;;;14.95;100.00;98591.17;1753299;80;21014;-48
2021/05/03 01:03:37;;;;;;;21.62;16.48;;;;;;;14.96;100.00;98590.17;1752539;80;21093;-50
2021/05/03 01:06:06;;;;;;;22.60;16.40;;;;;;;14.94;100.00;98595.74;1754247;80;21010;-48
2021/05/03 01:08:34;;;;;;;17.60;15.58;;;;;;;14.94;100.00;98598.95;1746215;80;21010;-48
2021/05/03 01:11:03;;;;;;;23.80;16.57;;;;;;;14.93;100.00;98590.45;1738849;81;21009;-48
2021/05/03 01:13:31;;;;;;;22.15;16.07;;;;;;;14.93;100.00;98594.53;1745244;81;20970;-49
2021/05/03 01:16:00;;;;;;;20.95;15.15;;;;;;;14.92;100.00;98599.09;1741723;81;21207;-49
2021/05/03 01:18:29;;;;;;;20.15;15.08;;;;;;;14.91;100.00;98592.42;1738579;81;20986;-55
2021/05/03 01:20:57;;;;;;;21.82;14.75;;;;;;;14.90;100.00;98596.14;1743610;81;20986;-55
2021/05/03 01:23:25;;;;;;;19.62;14.30;;;;;;;14.88;100.00;98602.20;1738185;81;21164;-55
2021/05/03 01:25:53;;;;;;;17.73;13.10;;;;;;;14.84;100.00;98594.81;1739509;81;21101;-55
2021/05/03 01:28:21;;;;;;;14.20;12.10;;;;;;;14.80;100.00;98600.14;1740957;81;22173;-57
2021/05/03 01:30:49;;;;;;;20.48;12.88;;;;;;;14.77;99.24;98609.06;1737714;79;21003;-52
2021/05/03 01:33:19;;;;;;;15.23;10.60;;;;;;;14.73;98.83;98601.66;1739649;79;20963;-53
2021/05/03 01:35:48;;;;;;;17.20;11.35;;;;;;;14.70;97.93;98610.55;1742001;81;21141;-53
2021/05/03 01:38:16;;;;;;;14.47;10.98;;;;;;;14.67;97.49;98612.55;1740601;81;21129;-53
2021/05/03 01:40:45;;;;;;;16.37;11.15;;;;;;;14.62;97.04;98602.58;1741130;79;21398;-52
2021/05/03 01:43:22;;;;;;;16.52;11.20;;;;;;;14.59;96.51;98610.11;1738832;79;21605;-53
2021/05/03 01:45:51;;;;;;;21.12;10.63;;;;;;;14.55;96.25;98606.82;1672952;84;21090;-51
2021/05/03 01:48:22;;;;;;;11.90;10.25;;;;;;;14.51;95.98;98606.70;1738151;81;21535;-53
2021/05/03 01:50:50;;;;;;;15.65;9.75;;;;;;;14.46;94.73;98607.56;1740141;81;21157;-51
2021/05/03 01:53:18;;;;;;;10.90;8.70;;;;;;;14.41;93.88;98616.58;1738158;81;22225;-52
2021/05/03 01:55:50;;;;;;;11.65;7.90;;;;;;;14.36;93.40;98614.75;1738052;81;21022;-53
2021/05/03 01:58:18;;;;;;;9.23;7.75;;;;;;;14.30;91.87;98616.63;1741083;79;21144;-52
2021/05/03 02:00:46;;;;;;;8.05;6.72;;;;;;;14.24;90.44;98622.06;1742130;81;21042;-52
2021/05/03 02:03:24;;;;;;;9.08;6.85;;;;;;;14.20;89.17;98617.02;1747667;81;21417;-52
2021/05/03 02:05:53;;;;;;;11.00;5.95;;;;;;;14.12;88.08;98621.23;1736884;81;21561;-52
2021/05/03 02:08:22;;;;;;;7.92;5.97;;;;;;;14.08;87.25;98621.62;1738287;81;20999;-52
2021/05/03 02:10:51;;;;;;;11.80;6.42;;;;;;;14.03;86.62;98621.99;1736613;81;21230;-50
2021/05/03 02:13:19;;;;;;;7.35;6.40;;;;;;;14.00;86.22;98620.87;1751174;81;21104;-51
2021/05/03 02:15:48;;;;;;;8.03;4.95;;;;;;;13.96;85.74;98619.93;1742031;81;21030;-50
2021/05/03 02:18:16;;;;;;;5.78;3.87;;;;;;;13.89;83.33;98620.91;1739953;81;22319;-50
2021/05/03 02:20:44;;;;;;;5.37;4.50;;;;;;;13.82;81.28;98618.34;1739591;81;21464;-52
2021/05/03 02:23:13;;;;;;;6.50;4.08;;;;;;;13.77;80.43;98628.69;1736474;81;21280;-51
2021/05/03 02:25:41;;;;;;;4.45;3.70;;;;;;;13.72;80.16;98636.33;1739903;81;20972;-51
2021/05/03 02:28:11;;;;;;;3.20;2.90;;;;;;;13.67;79.20;98643.96;1738739;81;21101;-52
2021/05/03 02:30:39;;;;;;;5.92;3.22;;;;;;;13.59;76.91;98646.81;1739528;79;22295;-52
2021/05/03 02:33:08;;;;;;;5.42;3.17;;;;;;;13.53;75.65;98656.78;1739668;81;21618;-48
2021/05/03 02:35:37;;;;;;;4.20;3.10;;;;;;;13.47;75.17;98651.83;1737545;81;20998;-47
2021/05/03 02:38:08;;;;;;;4.53;3.00;;;;;;;13.42;74.35;98652.69;1739515;81;21152;-48
2021/05/03 02:40:37;;;;;;;2.80;2.60;;;;;;;13.38;74.01;98651.23;1741560;81;21117;-48
2021/05/03 02:43:05;;;;;;;4.00;2.55;;;;;;;13.34;74.27;98659.22;1745089;81;22240;-48
2021/05/03 02:45:33;;;;;;;3.08;2.77;;;;;;;13.28;73.71;98667.83;1737808;81;21042;-48
2021/05/03 02:48:01;;;;;;;2.95;2.45;;;;;;;13.21;72.99;98667.89;1741267;81;21130;-48
2021/05/03 02:50:30;;;;;;;2.60;2.27;;;;;;;13.15;71.44;98665.67;1739286;81;21258;-49
2021/05/03 02:52:58;;;;;;;5.03;2.58;;;;;;;13.09;71.12;98685.46;1737290;81;21188;-57
2021/05/03 02:55:25;;;;;;;2.87;2.20;;;;;;;13.03;69.76;98676.97;1739818;81;21586;-57
2021/05/03 02:57:54;;;;;;;2.20;2.00;;;;;;;12.98;69.57;98671.91;1738813;79;21128;-57
2021/05/03 03:00:29;;;;;;;3.02;2.33;;;;;;;12.92;69.07;98683.20;1740179;79;21129;-56
2021/05/03 03:02:56;;;;;;;2.37;1.90;;;;;;;12.87;69.20;98686.75;1738988;81;21422;-51
2021/05/03 03:05:25;;;;;;;4.53;2.30;;;;;;;12.78;69.28;98688.80;1738318;81;21381;-52
2021/05/03 03:07:52;;;;;;;5.53;2.27;;;;;;;12.73;69.71;98701.81;1742054;80;21443;-51
2021/05/03 03:10:21;;;;;;;3.45;2.30;;;;;;;12.66;70.06;98714.09;1747018;80;20989;-53
2021/05/03 03:12:50;;;;;;;3.58;2.30;;;;;;;12.57;70.57;98727.34;1754909;79;22137;-52
2021/05/03 03:15:19;;;;;;;5.78;2.40;;;;;;;12.51;70.85;98725.06;1746058;79;21153;-53
2021/05/03 03:17:50;;;;;;;2.42;2.15;;;;;;;12.44;71.18;98720.25;1748558;80;20982;-52
2021/05/03 03:20:20;;;;;;;3.42;2.58;;;;;;;12.38;71.60;98724.27;1750404;79;21374;-51
2021/05/03 03:22:48;;;;;;;2.92;2.50;;;;;;;12.33;72.05;98742.67;1745805;80;21905;-53
2021/05/03 03:25:17;;;;;;;3.55;2.80;;;;;;;12.28;72.25;98742.14;1746622;80;21500;-52
2021/05/03 03:27:46;;;;;;;4.70;2.25;;;;;;;12.23;72.32;98753.78;1747860;80;21168;-53
2021/05/03 03:30:15;;;;;;;4.83;2.50;;;;;;;12.17;72.34;98752.88;1746630;80;21002;-53
2021/05/03 03:32:45;;;;;;;6.92;2.90;;;;;;;12.11;72.67;98758.25;1747705;80;21370;-52
2021/05/03 03:35:15;;;;;;;4.77;2.23;;;;;;;12.04;72.91;98763.23;1747192;80;21061;-52
2021/05/03 03:37:44;;;;;;;4.45;2.20;;;;;;;12.02;73.11;98761.11;1748551;80;21458;-51
2021/05/03 03:40:14;;;;;;;2.33;2.12;;;;;;;11.94;72.46;98766.22;1751256;80;20970;-51
2021/05/03 03:42:42;;;;;;;3.35;2.55;;;;;;;11.78;70.01;98775.01;1746688;80;21002;-52
2021/05/03 03:45:11;;;;;;;3.25;2.45;;;;;;;11.57;69.51;98780.58;1752815;80;21375;-52
2021/05/03 03:47:39;;;;;;;2.77;2.45;;;;;;;11.30;68.81;98790.09;1746377;80;21014;-53
2021/05/03 03:50:08;;;;;;;5.72;2.70;;;;;;;11.08;69.72;98796.06;1746049;80;20974;-52
2021/05/03 03:52:36;;;;;;;7.47;2.47;;;;;;;10.95;70.15;98798.25;1751581;80;21058;-51
2021/05/03 03:55:06;;;;;;;2.52;2.33;;;;;;;10.87;70.57;98815.94;1748461;80;20979;-49
2021/05/03 03:57:34;;;;;;;3.80;2.70;;;;;;;10.76;70.91;98812.59;1758497;80;21500;-49
2021/05/03 04:00:05;;;;;;;6.47;3.47;;;;;;;10.68;71.53;98816.27;1750080;80;21218;-51
2021/05/03 04:02:34;;;;;;;4.12;2.95;;;;;;;10.56;71.39;98825.17;1751760;80;20998;-49
2021/05/03 04:10:41;;;;;;;2.40;2.20;;;;;;;10.56;71.65;98846.73;1751732;79;21390;-49
2021/05/03 04:23:48;;;;;;;2.50;2.27;;;;;;;11.33;69.25;98875.76;1804924;78;22791;-55
2021/05/03 04:26:14;;;;;;;3.00;2.30;;;;;;;11.22;69.40;98878.31;1775388;79;20997;-51
2021/05/03 04:28:45;;;;;;;4.00;2.40;;;;;;;11.11;69.69;98886.27;1750619;80;21365;-50
2021/05/03 04:31:13;;;;;;;2.47;1.90;;;;;;;10.93;69.86;98881.13;1749542;79;20970;-50
2021/05/03 04:33:42;;;;;;;2.65;1.98;;;;;;;10.81;70.09;98865.72;1749878;80;21546;-50
2021/05/03 04:36:11;;;;;;;2.12;1.92;;;;;;;10.68;70.18;98870.20;1751741;80;20958;-50
2021/05/03 04:38:40;;;;;;;5.42;2.40;;;;;;;10.61;70.45;98876.48;1747772;79;21005;-50
2021/05/03 04:41:09;;;;;;;2.58;2.17;;;;;;;10.53;70.47;98877.44;1747980;79;21491;-50
2021/05/03 04:43:38;;;;;;;3.52;1.98;;;;;;;10.51;71.05;98883.91;1750521;80;21053;-50
2021/05/03 04:46:06;;;;;;;2.47;2.27;;;;;;;10.53;71.01;98895.45;1749154;80;21100;-50
2021/05/03 04:48:33;;;;;;;2.72;2.02;;;;;;;10.51;70.94;98881.21;1749876;80;21002;-49
2021/05/03 04:51:01;;;;;;;2.80;2.10;;;;;;;10.53;70.83;98899.48;1749838;80;21093;-49
2021/05/03 04:53:30;;;;;;;2.50;2.00;;;;;;;10.55;71.07;98890.84;1747713;80;21362;-50
2021/05/03 04:56:00;;;;;;;3.62;1.90;;;;;;;10.56;70.24;98868.30;1748838;80;20994;-52
2021/05/03 04:58:28;;;;;;;2.25;1.70;;;;;;;10.55;70.18;98873.31;1752782;80;21117;-54
2021/05/03 05:00:56;;;;;;;2.98;1.77;;;;;;;10.52;69.22;98881.10;1746604;80;20990;-52
2021/05/03 05:03:24;;;;;;;2.37;1.85;;;;;;;10.53;69.22;98900.84;1748492;80;21059;-52
2021/05/03 05:05:53;;;;;;;2.22;1.87;;;;;;;10.56;69.22;98891.22;1753788;79;21444;-53
2021/05/03 05:08:22;;;;;;;2.17;1.65;;;;;;;10.58;69.30;98897.37;1753207;79;21554;-50
2021/05/03 05:10:50;;;;;;;2.65;1.62;;;;;;;10.62;68.16;98900.26;1749237;79;21206;-50
2021/05/03 05:13:18;;;;;;;2.27;1.52;;;;;;;10.64;67.51;98903.70;1750902;79;21292;-51
2021/05/03 05:15:46;;;;;;;3.00;1.57;;;;;;;10.68;67.60;98905.25;1753245;80;21748;-50
2021/05/03 05:18:14;;;;;;;2.10;1.47;;;;;;;10.72;67.37;98901.41;1748726;80;21493;-50
2021/05/03 05:20:42;;;;;;;2.80;1.42;;;;;;;10.74;67.05;98890.02;1754415;79;21141;-49
2021/05/03 05:23:11;;;;;;;2.95;1.60;;;;;;;10.76;66.79;98906.98;1756605;80;21589;-52
2021/05/03 05:25:40;;;;;;;2.22;1.80;;;;;;;10.78;66.66;98903.70;1758313;80;20966;-53
2021/05/03 05:28:08;;;;;;;2.77;1.47;;;;;;;10.81;66.58;98906.17;1753037;80;20970;-50
2021/05/03 05:30:36;;;;;;;1.85;1.20;;;;;;;10.85;66.33;98900.97;1761173;80;22281;-52
2021/05/03 05:33:04;;;;;;;2.02;1.55;;;;;;;10.87;66.15;98895.02;1763678;79;21562;-52
2021/05/03 05:35:32;;;;;;;5.67;1.90;;;;;;;10.92;65.96;98891.54;1760358;80;20997;-51
2021/05/03 05:38:00;;;;;;;3.77;1.57;;;;;;;10.95;65.73;98894.02;1760145;79;21168;-52
2021/05/03 05:40:28;;;;;;;1.87;1.20;;;;;;;10.96;65.36;98894.39;1762084;80;21633;-50
2021/05/03 05:42:56;;;;;;;1.15;1.05;;;;;;;10.98;65.15;98887.09;1756233;79;21401;-50
2021/05/03 05:45:26;;;;;;;1.72;1.07;;;;;;;11.01;64.62;98908.45;1755799;79;21033;-50
2021/05/03 05:47:55;;;;;;;2.25;1.20;;;;;;;11.03;64.50;98888.63;1755725;80;20977;-50
2021/05/03 05:50:22;;;;;;;4.05;1.30;;;;;;;11.06;64.62;98904.59;1755305;79;21267;-49
2021/05/03 05:52:50;;;;;;;3.92;1.00;;;;;;;11.07;64.52;98897.73;1755209;79;21495;-49
2021/05/03 05:55:18;;;;;;;2.65;1.12;;;;;;;11.08;64.83;98889.16;1755593;79;21378;-50
2021/05/03 05:57:48;;;;;;;2.45;1.30;;;;;;;11.13;64.84;98895.11;1756209;80;21157;-50
2021/05/03 06:00:17;;;;;;;4.28;1.37;;;;;;;11.20;64.98;98901.85;1754389;80;21552;-49
2021/05/03 06:02:46;;;;;;;2.05;1.50;;;;;;;11.25;64.67;98911.37;1692877;82;21184;-49
2021/05/03 06:05:15;;;;;;;1.75;1.35;;;;;;;11.31;64.27;98915.98;1696398;83;21113;-49
2021/05/03 06:07:44;;;;;;;2.83;1.25;;;;;;;11.31;63.93;98931.70;1720600;82;21171;-49
2021/05/03 06:10:13;;;;;;;1.52;1.37;;;;;;;11.33;63.97;98935.63;1754366;79;21417;-49
2021/05/03 06:12:41;;;;;;;4.15;1.30;;;;;;;11.32;63.48;98939.30;1759331;80;20982;-49
2021/05/03 06:15:09;;;;;;;1.40;1.30;;;;;;;11.32;63.66;98929.86;1757579;80;21127;-49
2021/05/03 06:17:37;;;;;;;2.42;1.32;;;;;;;11.36;63.85;98920.11;1761750;80;21159;-52
2021/05/03 06:20:07;;;;;;;1.95;1.12;;;;;;;11.41;63.81;98922.02;1759728;79;21454;-51
2021/05/03 06:22:36;;;;;;;2.62;1.00;;;;;;;11.49;63.67;98924.19;1758134;80;21021;-52
2021/05/03 06:25:07;;;;;;;2.10;1.40;;;;;;;11.58;63.83;98930.81;1758374;79;21196;-52
2021/05/03 06:27:35;;;;;;;2.47;1.30;;;;;;;11.68;63.32;98937.33;1760034;80;20978;-51
2021/05/03 06:30:05;;;;;;;1.35;1.12;;;;;;;11.74;62.62;98943.66;1758057;79;21688;-51
2021/05/03 06:32:33;;;;;;;1.75;1.40;;;;;;;11.75;62.16;98955.70;1729586;80;21374;-50
2021/05/03 06:35:01;;;;;;;3.10;1.40;;;;;;;11.78;62.53;98954.64;1755216;79;21546;-52
2021/05/03 06:37:29;;;;;;;1.90;1.17;;;;;;;11.82;62.04;98962.92;1757963;80;20958;-50
2021/05/03 06:39:56;;;;;;;1.30;1.02;;;;;;;11.85;61.96;98955.12;1764663;80;20974;-52
2021/05/03 06:42:24;;;;;;;2.55;1.40;;;;;;;11.89;61.84;98965.61;1757193;79;21665;-51
2021/05/03 06:44:52;;;;;;;1.57;1.25;;;;;;;11.92;61.26;98950.52;1760853;80;21525;-50
2021/05/03 06:47:21;;;;;;;1.42;1.05;;;;;;;11.94;60.90;98964.81;1762621;79;21129;-50
2021/05/03 06:49:49;;;;;;;3.52;0.90;;;;;;;11.96;60.86;98966.91;1762961;80;21140;-50
2021/05/03 06:52:17;;;;;;;1.75;1.00;;;;;;;12.01;60.13;98962.06;1761694;79;21136;-55
2021/05/03 06:54:46;;;;;;;1.25;0.80;;;;;;;12.08;59.65;98962.98;1759536;79;21569;-53
2021/05/03 06:57:19;;;;;;;2.45;1.10;;;;;;;12.16;59.24;98959.28;1758037;79;21324;-50
2021/05/03 06:59:48;;;;;;;1.62;0.93;;;;;;;12.17;57.96;98961.01;1758501;79;21120;-53
2021/05/03 07:02:16;;;;;;;3.25;1.20;;;;;;;12.12;57.49;98972.13;1762685;80;21088;-52
2021/05/03 07:04:45;;;;;;;2.77;1.02;;;;;;;12.06;57.60;98984.72;1761719;80;21232;-50
2021/05/03 07:07:13;;;;;;;1.57;1.02;;;;;;;12.04;57.72;98985.33;1769098;79;21085;-52
2021/05/03 07:09:47;;;;;;;1.52;0.98;;;;;;;11.99;58.02;98993.73;1765105;80;21884;-52
2021/05/03 07:12:15;;;;;;;1.27;1.17;;;;;;;11.96;57.74;98983.12;1762699;79;21687;-52
2021/05/03 07:14:43;;;;;;;2.60;1.00;;;;;;;11.91;57.79;98993.38;1760759;79;21230;-50
2021/05/03 07:17:12;;;;;;;1.77;1.22;;;;;;;11.88;58.24;99007.11;1759398;80;21071;-49
2021/05/03 07:19:40;;;;;;;3.75;0.95;;;;;;;11.91;58.31;99005.54;1762312;79;21193;-52
2021/05/03 07:22:10;;;;;;;2.10;0.85;;;;;;;11.93;58.39;98995.52;1760775;79;22092;-52
2021/05/03 07:24:40;;;;;;;1.55;1.00;;;;;;;11.95;58.21;98992.21;1753837;80;21123;-51
2021/05/03 07:27:10;;;;;;;0.95;0.88;;;;;;;12.00;58.16;99000.88;1758899;79;21044;-51
2021/05/03 07:29:39;;;;;;;1.10;1.00;;;;;;;12.02;58.15;99004.81;1759705;79;20998;-51
2021/05/03 07:32:07;;;;;;;1.98;1.10;;;;;;;12.06;58.22;99002.28;1761633;80;21570;-54
2021/05/03 07:34:37;;;;;;;1.65;0.93;;;;;;;12.06;57.77;99008.55;1755624;80;21365;-51
2021/05/03 07:37:06;;;;;;;2.47;1.07;;;;;;;12.10;58.13;99008.36;1761043;80;21176;-52
2021/05/03 07:39:34;;;;;;;4.60;1.62;;;;;;;12.16;58.03;99006.58;1754529;80;21609;-50
2021/05/03 07:42:02;;;;;;;2.22;1.35;;;;;;;12.19;57.99;99007.22;1756087;79;21006;-52
2021/05/03 07:44:32;;;;;;;2.67;1.30;;;;;;;12.23;57.40;99006.53;1752311;79;20962;-51
2021/05/03 07:47:01;;;;;;;2.02;0.90;;;;;;;12.22;57.81;99018.31;1758422;80;21362;-53
2021/05/03 07:49:28;;;;;;;1.98;1.20;;;;;;;12.19;56.66;99013.11;1756687;80;21403;-54
2021/05/03 07:51:56;;;;;;;4.83;1.27;;;;;;;12.13;56.93;99018.94;1756429;80;21285;-54
2021/05/03 07:54:24;;;;;;;2.95;1.32;;;;;;;12.13;57.14;99018.94;1760524;79;21116;-53
2021/05/03 07:56:53;;;;;;;2.60;1.10;;;;;;;12.17;57.35;99025.87;1756326;80;21966;-52
2021/05/03 07:59:21;;;;;;;2.27;1.15;;;;;;;12.27;57.66;99014.33;1756894;79;21441;-52
2021/05/03 08:01:49;;;;;;;4.55;1.10;;;;;;;12.33;56.81;99018.44;1754659;79;21669;-58
2021/05/03 08:04:17;;;;;;;3.05;1.60;;;;;;;12.38;56.90;99010.02;1753238;79;21231;-58
2021/05/03 08:06:47;;;;;;;3.58;1.12;;;;;;;12.43;56.98;99020.03;1756016;80;21132;-58
2021/05/03 08:09:15;;;;;;;2.55;1.00;;;;;;;12.45;56.57;99014.88;1757426;80;21080;-53
2021/05/03 08:11:44;;;;;;;2.20;0.88;;;;;;;12.43;55.88;99030.36;1758112;79;21745;-52
2021/05/03 08:14:15;;;;;;;2.08;1.15;;;;;;;12.39;56.14;99023.42;1754045;80;21613;-52
2021/05/03 08:16:42;;;;;;;1.75;1.30;;;;;;;12.39;56.34;99031.53;1753700;80;21241;-53
2021/05/03 08:19:12;;;;;;;2.02;1.20;;;;;;;12.37;56.65;99036.20;1756886;79;21530;-53
2021/05/03 08:21:42;;;;;;;;;;;;;;;12.35;56.91;99032.70;1757998;79;20954;-55
2021/05/03 08:24:10;;;;;;;4.00;1.30;;;;;;;12.39;57.31;99047.76;1752585;80;21153;-54
2021/05/03 08:26:38;;;;;;;2.20;1.10;;;;;;;12.35;57.06;99044.88;1753844;79;21131;-55
2021/05/03 08:29:06;;;;;;;4.00;1.20;;;;;;;12.26;57.44;99049.59;1755772;79;21160;-53
2021/05/03 08:31:35;;;;;;;4.20;1.45;;;;;;;12.22;57.54;99056.16;1759157;79;21577;-54
2021/05/03 08:34:03;;;;;;;2.72;1.00;;;;;;;12.20;57.82;99066.23;1768774;80;21006;-55
2021/05/03 08:36:32;;;;;;;3.12;1.30;;;;;;;12.16;57.98;99061.51;1760165;80;21332;-53
2021/05/03 08:39:00;;;;;;;3.27;1.20;;;;;;;12.18;58.08;99062.75;1754900;79;21140;-54
2021/05/03 08:41:28;;;;;;;2.87;1.02;;;;;;;12.21;57.79;99040.92;1757132;79;21152;-53
2021/05/03 08:43:56;;;;;;;1.47;1.17;;;;;;;12.15;57.93;99061.13;1756237;79;21044;-54
2021/05/03 08:46:28;;;;;;;1.92;1.12;;;;;;;12.08;58.17;99064.33;1761675;80;21534;-53
2021/05/03 08:54:39;;;;;;;2.02;1.30;;;;;;;11.99;58.36;99065.34;1774088;79;21959;-56
2021/05/03 08:57:06;;;;;;;2.02;1.70;;;;;;;11.91;59.13;99071.73;1772718;79;22168;-52
2021/05/03 08:59:37;;;;;;;1.82;1.60;;;;;;;11.88;59.22;99071.96;1770919;80;21124;-53
2021/05/03 09:02:07;;;;;;;3.12;1.92;;;;;;;11.85;58.89;99079.39;1772822;79;21013;-54
2021/05/03 09:04:36;;;;;;;1.70;1.40;;;;;;;11.81;58.84;99077.33;1776764;80;21215;-54
2021/05/03 09:07:14;;;;;;;1.60;1.22;;;;;;;11.79;59.12;99070.69;1774025;78;20990;-53
2021/05/03 09:09:46;;;;;;;1.95;1.45;;;;;;;11.91;58.26;99062.28;1774802;79;21250;-54
2021/05/03 09:12:19;;;;;;;2.12;1.30;;;;;;;11.94;57.67;99070.20;1775099;79;20994;-54
2021/05/03 09:14:51;;;;;;;1.72;1.17;;;;;;;11.99;57.26;99072.59;1769843;79;21005;-53
2021/05/03 09:17:25;;;;;;;2.25;1.45;;;;;;;12.05;56.94;99070.34;1767925;79;21100;-53
2021/05/03 09:19:54;;;;;;;2.75;1.60;;;;;;;12.10;56.32;99078.63;1776301;79;21096;-54
2021/05/03 09:22:38;;;;;;;1.37;1.27;;;;;;;12.15;56.46;99081.89;1746083;80;22203;-56
2021/05/03 09:25:35;;;;;;;2.05;1.70;;;;;;;12.22;56.20;99085.91;1774595;79;21006;-53
2021/05/03 09:28:18;;;;;;;1.65;1.22;;;;;;;12.22;56.20;99081.84;1776767;79;21473;-54
2021/05/03 09:30:57;;;;;;;1.10;1.00;;;;;;;12.28;55.82;99086.34;1769704;79;21068;-52
2021/05/03 09:33:28;;;;;;;2.87;1.62;;;;;;;12.40;55.36;99073.82;1772898;79;21114;-54
2021/05/03 09:36:02;;;;;;;1.82;1.47;;;;;;;12.45;54.89;99064.91;1775286;79;22183;-53
2021/05/03 09:38:47;;;;;;;5.40;1.27;;;;;;;12.47;54.88;99085.11;1775131;79;20985;-53
2021/05/03 09:41:29;;;;;;;2.37;1.50;;;;;;;12.33;54.73;99073.38;1773670;79;21569;-53
2021/05/03 09:44:07;;;;;;;7.75;1.50;;;;;;;12.26;54.96;99064.45;1776469;79;21557;-53
2021/05/03 09:46:46;;;;;;;1.32;1.10;;;;;;;12.25;55.19;99080.27;1774773;79;21483;-52
2021/05/03 09:49:19;;;;;;;3.30;1.10;;;;;;;12.21;54.75;99084.17;1731583;81;21198;-53
2021/05/03 09:51:56;;;;;;;3.02;1.72;;;;;;;12.11;55.08;99110.09;1770062;79;21257;-53
2021/05/03 09:54:29;;;;;;;2.35;1.30;;;;;;;12.00;54.96;99091.88;1787085;78;21570;-52
2021/05/03 09:57:10;;;;;;;2.50;1.42;;;;;;;11.93;54.93;99090.09;1776028;79;21102;-53
2021/05/03 09:59:47;;;;;;;2.35;1.50;;;;;;;11.91;55.42;99096.55;1765536;79;21004;-52
2021/05/03 10:02:26;;;;;;;1.98;1.30;;;;;;;11.98;55.48;99088.40;1732129;81;21157;-52
2021/05/03 10:05:10;;;;;;;2.27;1.40;;;;;;;12.04;55.10;99104.23;1764992;81;21706;-53
2021/05/03 10:07:39;;;;;;;1.60;1.32;;;;;;;12.06;54.65;99092.34;1786357;80;20965;-53
2021/05/03 10:12:46;;;;;;;2.83;1.72;;;;;;;12.13;55.07;99104.08;1812758;76;22803;-54
2021/05/03 10:15:16;;;;;;;2.15;1.55;;;;;;;12.19;55.47;99106.38;1786363;79;21581;-59
2021/05/03 10:17:44;;;;;;;3.65;1.60;;;;;;;12.27;54.34;99118.90;1751014;80;21354;-57
2021/05/03 10:20:16;;;;;;;3.75;1.20;;;;;;;12.30;54.26;99120.92;1750697;80;21587;-52
2021/05/03 10:22:46;;;;;;;1.82;1.20;;;;;;;12.34;54.46;99113.45;1751016;79;20958;-54
2021/05/03 10:25:17;;;;;;;2.77;1.35;;;;;;;12.41;54.09;99117.95;1757176;80;21002;-53
2021/05/03 10:27:48;;;;;;;1.57;1.37;;;;;;;12.43;53.81;99115.54;1753120;80;21130;-54
2021/05/03 10:30:22;;;;;;;2.25;1.52;;;;;;;12.42;54.09;99122.41;1751493;80;21397;-53
2021/05/03 10:33:05;;;;;;;2.17;1.57;;;;;;;12.43;54.42;99126.36;1680625;82;20986;-53
2021/05/03 10:35:48;;;;;;;1.52;1.42;;;;;;;12.43;53.88;99134.95;1703559;83;21718;-53
2021/05/03 10:38:36;;;;;;;4.40;1.67;;;;;;;12.38;53.95;99116.34;1701395;83;21138;-53
2021/05/03 10:41:31;;;;;;;1.82;1.62;;;;;;;12.42;53.88;99119.22;1800003;78;23282;-52
2021/05/03 10:47:00;;;;;;;1.77;1.60;;;;;;;12.64;53.57;99122.67;1794620;76;22825;-53
2021/05/03 10:49:33;;;;;;;1.70;1.40;;;;;;;12.59;52.89;99122.98;1761482;80;21004;-54
2021/05/03 10:52:06;;;;;;;2.15;1.60;;;;;;;12.48;52.91;99125.56;1762931;78;21005;-52
2021/05/03 10:57:16;;;;;;;2.42;1.57;;;;;;;12.48;53.67;99130.97;1762506;79;21526;-51
2021/05/03 10:59:55;;;;;;;2.35;1.52;;;;;;;12.52;52.90;99135.20;1761137;79;21358;-52
2021/05/03 11:02:26;;;;;;;3.50;1.60;;;;;;;12.50;52.59;99126.31;1761430;79;20973;-53
2021/05/03 11:09:18;;;;;;;2.65;1.50;;;;;;;12.45;51.94;99150.09;1784888;79;23298;-52
2021/05/03 11:11:46;;;;;;;3.45;1.60;;;;;;;12.36;52.54;99156.14;1695028;83;20971;-53
2021/05/03 11:14:16;;;;;;;3.30;1.52;;;;;;;12.39;52.77;99153.70;1694160;83;21403;-53
2021/05/03 11:16:51;;;;;;;2.15;1.45;;;;;;;12.45;52.78;99163.61;1702301;83;21009;-52
2021/05/03 11:22:17;;;;;;;3.00;1.50;;;;;;;12.57;52.54;99157.39;1822287;77;22399;-53
2021/05/03 11:24:57;;;;;;;;;;;;;;;12.42;52.37;99167.03;1815088;78;21109;-52
2021/05/03 11:32:57;;;;;;;2.58;1.90;;;;;;;12.36;52.54;99153.90;1808219;76;22753;-53
2021/05/03 11:35:41;;;;;;;4.05;1.67;;;;;;;12.31;52.12;99150.17;1774680;78;20966;-53
2021/05/03 11:46:33;;;;;;;2.08;1.87;;;;;;;12.38;51.86;99129.85;1764583;79;21361;-52
2021/05/03 11:49:16;;;;;;;2.25;1.82;;;;;;;12.49;51.74;99140.81;1758686;79;21180;-52
2021/05/03 11:51:51;;;;;;;1.50;1.40;;;;;;;12.63;51.30;99134.96;1762429;79;20993;-52
2021/05/03 11:54:35;;;;;;;3.40;1.72;;;;;;;12.80;51.02;99133.30;1757166;80;20993;-53
2021/05/03 11:57:16;;;;;;;2.72;2.20;;;;;;;12.87;50.18;99144.07;1757054;79;21644;-53
2021/05/03 11:59:44;;;;;;;1.87;1.47;;;;;;;12.82;50.03;99148.44;1759897;80;21367;-54
2021/05/03 12:02:13;;;;;;;1.65;1.55;;;;;;;12.81;49.98;99143.15;1760385;79;21001;-52
2021/05/03 12:04:49;;;;;;;1.75;1.55;;;;;;;12.83;50.03;99139.84;1771898;79;20993;-52
2021/05/03 12:07:23;;;;;;;9.28;4.22;;;;;;;12.84;49.91;99145.66;1756600;79;21116;-52
2021/05/03 12:10:08;;;;;;;4.28;1.80;;;;;;;12.83;50.30;99133.07;1764477;79;21104;-53
2021/05/03 12:12:39;;;;;;;3.45;2.12;;;;;;;12.79;49.73;99139.70;1756984;79;21559;-53
2021/05/03 12:15:12;;;;;;;2.90;2.10;;;;;;;12.75;50.42;99139.52;1758670;79;21136;-53
2021/05/03 12:17:40;;;;;;;2.47;2.02;;;;;;;12.70;50.83;99147.08;1764218;79;21163;-54
2021/05/03 12:20:19;;;;;;;3.25;2.70;;;;;;;12.66;50.90;99138.78;1758713;79;21504;-53
2021/05/03 12:23:08;;;;;;;2.35;2.05;;;;;;;12.74;51.08;99136.44;1825628;77;22107;-52
2021/05/03 12:25:42;;;;;;;5.62;2.37;;;;;;;12.75;50.82;99139.03;1815007;78;20973;-52
2021/05/03 12:28:11;;;;;;;2.22;1.65;;;;;;;12.73;50.58;99134.22;1816855;78;22245;-52
2021/05/03 12:30:39;;;;;;;6.35;1.77;;;;;;;12.73;50.84;99134.68;1747323;82;21010;-52
2021/05/03 12:33:17;;;;;;;2.80;1.50;;;;;;;12.79;50.29;99138.34;1816314;78;21029;-51
2021/05/03 12:35:50;;;;;;;3.30;1.85;;;;;;;12.91;50.27;99130.71;1816498;78;20978;-52
2021/05/03 12:38:30;;;;;;;1.42;1.32;;;;;;;13.08;49.24;99138.51;1816383;78;21099;-53
2021/05/03 12:41:04;;;;;;;2.00;1.40;;;;;;;13.15;47.98;99132.66;1815826;78;21136;-54
2021/05/03 12:43:38;;;;;;;1.42;1.32;;;;;;;13.10;48.01;99144.70;1816252;78;21581;-53